sensor_id;sensor_type;location;lat;lon;timestamp;pressure;altitude;pressure_sealevel;temperature;humidity
79006;BME280;69202;45.498;-73.582;2023-09-18T00:00:44;100497.91;;;23.05;54.38
79006;BME280;69202;45.498;-73.582;2023-09-18T00:03:10;100345.56;;;22.06;54.21
79006;BME280;69202;45.498;-73.582;2023-09-18T00:05:36;100437.00;;;22.57;54.25
79006;BME280;69202;45.498;-73.582;2023-09-18T00:08:02;100478.25;;;22.72;54.43
79006;BME280;69202;45.498;-73.582;2023-09-18T00:10:29;100449.06;;;22.66;54.47
79006;BME280;69202;45.498;-73.582;2023-09-18T00:12:56;100435.13;;;22.53;55.04
79006;BME280;69202;45.498;-73.582;2023-09-18T00:15:22;100513.16;;;22.92;55.02
79006;BME280;69202;45.498;-73.582;2023-09-18T00:17:49;100499.16;;;22.79;55.66
79006;BME280;69202;45.498;-73.582;2023-09-18T00:20:15;100498.03;;;22.80;55.76
79006;BME280;69202;45.498;-73.582;2023-09-18T00:22:44;100516.03;;;22.72;56.43
79006;BME280;69202;45.498;-73.582;2023-09-18T00:25:10;100395.00;;;21.77;56.34
79006;BME280;69202;45.498;-73.582;2023-09-18T00:27:36;100441.66;;;22.17;56.74
79006;BME280;69202;45.498;-73.582;2023-09-18T00:30:04;100513.03;;;22.63;56.32
79006;BME280;69202;45.498;-73.582;2023-09-18T00:32:33;100491.94;;;22.38;56.83
79006;BME280;69202;45.498;-73.582;2023-09-18T00:34:59;100528.81;;;22.47;57.16
79006;BME280;69202;45.498;-73.582;2023-09-18T00:37:25;100491.22;;;22.17;57.41
79006;BME280;69202;45.498;-73.582;2023-09-18T00:39:50;100452.72;;;21.97;57.22
79006;BME280;69202;45.498;-73.582;2023-09-18T00:42:17;100533.56;;;22.42;56.86
79006;BME280;69202;45.498;-73.582;2023-09-18T00:44:48;100521.41;;;22.43;56.95
79006;BME280;69202;45.498;-73.582;2023-09-18T00:47:16;100524.19;;;22.38;56.55
79006;BME280;69202;45.498;-73.582;2023-09-18T00:49:46;100518.44;;;22.34;56.33
79006;BME280;69202;45.498;-73.582;2023-09-18T00:52:13;100480.19;;;22.23;55.83
79006;BME280;69202;45.498;-73.582;2023-09-18T00:54:40;100320.31;;;21.24;54.99
79006;BME280;69202;45.498;-73.582;2023-09-18T00:57:10;100479.38;;;22.17;55.06
79006;BME280;69202;45.498;-73.582;2023-09-18T00:59:40;100513.69;;;22.45;55.67
79006;BME280;69202;45.498;-73.582;2023-09-18T01:02:06;100497.44;;;22.43;55.37
79006;BME280;69202;45.498;-73.582;2023-09-18T01:04:33;100494.41;;;22.40;55.35
79006;BME280;69202;45.498;-73.582;2023-09-18T01:07:03;100485.94;;;22.26;55.65
79006;BME280;69202;45.498;-73.582;2023-09-18T01:09:34;100500.00;;;22.19;55.98
79006;BME280;69202;45.498;-73.582;2023-09-18T01:12:19;100508.03;;;22.21;56.19
79006;BME280;69202;45.498;-73.582;2023-09-18T01:17:20;100451.41;;;21.84;55.82
79006;BME280;69202;45.498;-73.582;2023-09-18T01:20:09;100514.91;;;22.18;54.48
79006;BME280;69202;45.498;-73.582;2023-09-18T01:22:39;100516.88;;;22.13;54.79
79006;BME280;69202;45.498;-73.582;2023-09-18T01:25:05;100454.44;;;21.83;55.19
79006;BME280;69202;45.498;-73.582;2023-09-18T01:27:32;100497.59;;;21.98;55.56
79006;BME280;69202;45.498;-73.582;2023-09-18T01:29:58;100468.75;;;21.85;55.81
79006;BME280;69202;45.498;-73.582;2023-09-18T01:32:26;100444.00;;;21.80;55.72
79006;BME280;69202;45.498;-73.582;2023-09-18T01:34:55;100343.72;;;21.21;55.56
79006;BME280;69202;45.498;-73.582;2023-09-18T01:37:27;100397.56;;;21.58;55.78
79006;BME280;69202;45.498;-73.582;2023-09-18T01:39:54;100324.78;;;21.04;55.83
79006;BME280;69202;45.498;-73.582;2023-09-18T01:42:23;100504.97;;;22.23;55.93
79006;BME280;69202;45.498;-73.582;2023-09-18T01:44:49;100387.34;;;21.64;56.06
79006;BME280;69202;45.498;-73.582;2023-09-18T01:47:19;100488.69;;;22.31;56.07
79006;BME280;69202;45.498;-73.582;2023-09-18T01:49:46;100469.47;;;22.21;55.79
79006;BME280;69202;45.498;-73.582;2023-09-18T01:52:12;100479.63;;;22.31;55.88
79006;BME280;69202;45.498;-73.582;2023-09-18T01:54:38;100466.16;;;22.19;55.63
79006;BME280;69202;45.498;-73.582;2023-09-18T01:57:05;100487.88;;;22.26;55.49
79006;BME280;69202;45.498;-73.582;2023-09-18T01:59:33;100508.19;;;22.45;55.73
79006;BME280;69202;45.498;-73.582;2023-09-18T02:01:59;100347.53;;;21.36;56.08
79006;BME280;69202;45.498;-73.582;2023-09-18T02:04:26;100272.03;;;20.97;55.76
79006;BME280;69202;45.498;-73.582;2023-09-18T02:06:52;100436.72;;;22.04;56.57
79006;BME280;69202;45.498;-73.582;2023-09-18T02:09:18;100412.84;;;21.89;55.59
79006;BME280;69202;45.498;-73.582;2023-09-18T02:11:46;100311.00;;;21.30;56.15
79006;BME280;69202;45.498;-73.582;2023-09-18T02:14:13;100499.38;;;22.43;56.69
79006;BME280;69202;45.498;-73.582;2023-09-18T02:16:41;100505.22;;;22.31;57.25
79006;BME280;69202;45.498;-73.582;2023-09-18T02:19:10;100420.38;;;21.69;57.49
79006;BME280;69202;45.498;-73.582;2023-09-18T02:21:36;100367.66;;;21.21;57.25
79006;BME280;69202;45.498;-73.582;2023-09-18T02:24:03;100497.25;;;22.19;56.23
79006;BME280;69202;45.498;-73.582;2023-09-18T02:26:29;100509.88;;;22.36;54.22
79006;BME280;69202;45.498;-73.582;2023-09-18T02:28:57;100517.59;;;22.34;52.12
79006;BME280;69202;45.498;-73.582;2023-09-18T02:31:23;100456.97;;;21.69;50.42
79006;BME280;69202;45.498;-73.582;2023-09-18T02:33:49;100531.78;;;21.92;49.39
79006;BME280;69202;45.498;-73.582;2023-09-18T02:36:16;100513.13;;;21.48;48.44
79006;BME280;69202;45.498;-73.582;2023-09-18T02:38:42;100537.59;;;21.59;48.08
79006;BME280;69202;45.498;-73.582;2023-09-18T02:41:09;100336.59;;;20.18;49.78
79006;BME280;69202;45.498;-73.582;2023-09-18T02:43:35;100538.44;;;21.35;53.17
79006;BME280;69202;45.498;-73.582;2023-09-18T02:46:04;100540.66;;;21.48;55.48
79006;BME280;69202;45.498;-73.582;2023-09-18T02:48:31;100378.94;;;20.63;57.20
79006;BME280;69202;45.498;-73.582;2023-09-18T02:50:59;100530.72;;;21.52;58.92
79006;BME280;69202;45.498;-73.582;2023-09-18T02:53:25;100519.44;;;21.53;59.98
79006;BME280;69202;45.498;-73.582;2023-09-18T02:55:52;100465.56;;;21.17;60.78
79006;BME280;69202;45.498;-73.582;2023-09-18T02:58:19;100535.94;;;21.64;61.31
79006;BME280;69202;45.498;-73.582;2023-09-18T03:00:47;100531.56;;;21.68;61.21
79006;BME280;69202;45.498;-73.582;2023-09-18T03:03:14;100359.44;;;20.50;60.88
79006;BME280;69202;45.498;-73.582;2023-09-18T03:05:41;100342.44;;;20.68;59.99
79006;BME280;69202;45.498;-73.582;2023-09-18T03:08:08;100523.25;;;21.83;59.74
79006;BME280;69202;45.498;-73.582;2023-09-18T03:10:41;100522.16;;;21.89;58.81
79006;BME280;69202;45.498;-73.582;2023-09-18T03:13:09;100522.13;;;21.94;58.47
79006;BME280;69202;45.498;-73.582;2023-09-18T03:15:35;100502.59;;;21.90;57.85
79006;BME280;69202;45.498;-73.582;2023-09-18T03:18:04;100334.44;;;20.82;57.86
79006;BME280;69202;45.498;-73.582;2023-09-18T03:20:30;100327.03;;;20.87;57.37
79006;BME280;69202;45.498;-73.582;2023-09-18T03:23:01;100528.16;;;22.11;57.06
79006;BME280;69202;45.498;-73.582;2023-09-18T03:25:28;100409.41;;;21.53;57.00
79006;BME280;69202;45.498;-73.582;2023-09-18T03:27:55;100502.56;;;22.11;56.91
79006;BME280;69202;45.498;-73.582;2023-09-18T03:30:22;100334.94;;;21.04;56.81
79006;BME280;69202;45.498;-73.582;2023-09-18T03:32:54;100378.91;;;21.35;56.68
79006;BME280;69202;45.498;-73.582;2023-09-18T03:35:21;100503.06;;;22.23;56.41
79006;BME280;69202;45.498;-73.582;2023-09-18T03:37:52;100317.88;;;21.12;56.06
79006;BME280;69202;45.498;-73.582;2023-09-18T03:40:20;100486.00;;;22.21;56.06
79006;BME280;69202;45.498;-73.582;2023-09-18T03:42:46;100487.59;;;22.27;56.05
79006;BME280;69202;45.498;-73.582;2023-09-18T03:45:13;100247.59;;;20.81;55.89
79006;BME280;69202;45.498;-73.582;2023-09-18T03:47:40;100439.28;;;21.85;55.68
79006;BME280;69202;45.498;-73.582;2023-09-18T03:50:10;100354.94;;;21.50;55.58
79006;BME280;69202;45.498;-73.582;2023-09-18T03:52:38;100411.13;;;21.99;55.75
79006;BME280;69202;45.498;-73.582;2023-09-18T03:55:05;100256.91;;;21.00;55.86
79006;BME280;69202;45.498;-73.582;2023-09-18T03:57:31;100466.38;;;22.33;55.75
79006;BME280;69202;45.498;-73.582;2023-09-18T03:59:57;100256.03;;;21.10;55.37
79006;BME280;69202;45.498;-73.582;2023-09-18T04:02:26;100446.38;;;22.12;55.68
79006;BME280;69202;45.498;-73.582;2023-09-18T04:04:55;100465.78;;;22.36;55.39
79006;BME280;69202;45.498;-73.582;2023-09-18T04:07:21;100414.72;;;22.09;55.49
79006;BME280;69202;45.498;-73.582;2023-09-18T04:09:47;100327.97;;;21.57;55.54
79006;BME280;69202;45.498;-73.582;2023-09-18T04:12:13;100483.69;;;22.38;55.46
79006;BME280;69202;45.498;-73.582;2023-09-18T04:14:39;100271.16;;;21.12;55.26
79006;BME280;69202;45.498;-73.582;2023-09-18T04:17:05;100433.91;;;22.19;55.70
79006;BME280;69202;45.498;-73.582;2023-09-18T04:19:31;100460.88;;;22.33;55.46
79006;BME280;69202;45.498;-73.582;2023-09-18T04:21:57;100397.41;;;21.94;55.31
79006;BME280;69202;45.498;-73.582;2023-09-18T04:24:25;100390.25;;;21.87;55.42
79006;BME280;69202;45.498;-73.582;2023-09-18T04:26:52;100422.13;;;22.04;55.52
79006;BME280;69202;45.498;-73.582;2023-09-18T04:29:18;100464.72;;;22.32;55.79
79006;BME280;69202;45.498;-73.582;2023-09-18T04:31:45;100346.59;;;21.66;55.55
79006;BME280;69202;45.498;-73.582;2023-09-18T04:34:11;100455.38;;;22.28;55.83
79006;BME280;69202;45.498;-73.582;2023-09-18T04:36:37;100458.13;;;22.28;55.96
79006;BME280;69202;45.498;-73.582;2023-09-18T04:39:04;100316.47;;;21.40;55.75
79006;BME280;69202;45.498;-73.582;2023-09-18T04:41:31;100435.34;;;22.12;55.96
79006;BME280;69202;45.498;-73.582;2023-09-18T04:43:57;100442.16;;;22.25;55.99
79006;BME280;69202;45.498;-73.582;2023-09-18T04:46:23;100337.81;;;21.64;55.85
79006;BME280;69202;45.498;-73.582;2023-09-18T04:48:50;100185.50;;;20.85;55.59
79006;BME280;69202;45.498;-73.582;2023-09-18T04:51:16;100427.34;;;22.21;55.66
79006;BME280;69202;45.498;-73.582;2023-09-18T04:53:42;100258.72;;;21.25;55.79
79006;BME280;69202;45.498;-73.582;2023-09-18T04:56:08;100232.03;;;21.25;55.81
79006;BME280;69202;45.498;-73.582;2023-09-18T04:58:36;100351.72;;;21.93;55.32
79006;BME280;69202;45.498;-73.582;2023-09-18T05:01:02;100337.44;;;21.85;55.44
79006;BME280;69202;45.498;-73.582;2023-09-18T05:03:33;100351.13;;;21.96;55.42
79006;BME280;69202;45.498;-73.582;2023-09-18T05:05:59;100416.75;;;22.38;55.54
79006;BME280;69202;45.498;-73.582;2023-09-18T05:08:25;100230.69;;;21.23;55.28
79006;BME280;69202;45.498;-73.582;2023-09-18T05:10:51;100364.06;;;22.00;55.55
79006;BME280;69202;45.498;-73.582;2023-09-18T05:13:17;100350.03;;;21.97;55.60
79006;BME280;69202;45.498;-73.582;2023-09-18T05:15:43;100384.16;;;22.11;55.43
79006;BME280;69202;45.498;-73.582;2023-09-18T05:18:09;100415.63;;;22.39;55.68
79006;BME280;69202;45.498;-73.582;2023-09-18T05:20:35;100410.94;;;22.39;55.59
79006;BME280;69202;45.498;-73.582;2023-09-18T05:23:01;100398.31;;;22.33;55.24
79006;BME280;69202;45.498;-73.582;2023-09-18T05:25:29;100409.81;;;22.40;55.57
79006;BME280;69202;45.498;-73.582;2023-09-18T05:27:58;100422.78;;;22.40;55.43
79006;BME280;69202;45.498;-73.582;2023-09-18T05:30:33;100420.59;;;22.42;55.50
79006;BME280;69202;45.498;-73.582;2023-09-18T05:33:05;100427.75;;;22.43;55.19
79006;BME280;69202;45.498;-73.582;2023-09-18T05:35:36;100362.97;;;22.01;55.32
79006;BME280;69202;45.498;-73.582;2023-09-18T05:38:05;100443.00;;;22.25;55.29
79006;BME280;69202;45.498;-73.582;2023-09-18T05:40:31;100264.50;;;21.33;55.54
79006;BME280;69202;45.498;-73.582;2023-09-18T05:42:58;100446.75;;;22.44;55.48
79006;BME280;69202;45.498;-73.582;2023-09-18T05:45:24;100451.44;;;22.44;55.34
79006;BME280;69202;45.498;-73.582;2023-09-18T05:47:50;100451.44;;;22.44;55.37
79006;BME280;69202;45.498;-73.582;2023-09-18T05:50:18;100408.88;;;22.21;55.24
79006;BME280;69202;45.498;-73.582;2023-09-18T05:52:46;100302.09;;;21.53;55.25
79006;BME280;69202;45.498;-73.582;2023-09-18T05:55:14;100424.56;;;22.21;55.13
79006;BME280;69202;45.498;-73.582;2023-09-18T05:57:40;100311.97;;;21.59;55.40
79006;BME280;69202;45.498;-73.582;2023-09-18T06:00:06;100445.09;;;22.43;55.51
79006;BME280;69202;45.498;-73.582;2023-09-18T06:02:33;100425.16;;;22.12;55.25
79006;BME280;69202;45.498;-73.582;2023-09-18T06:04:59;100452.84;;;22.41;55.35
79006;BME280;69202;45.498;-73.582;2023-09-18T06:07:26;100443.19;;;22.39;55.44
79006;BME280;69202;45.498;-73.582;2023-09-18T06:09:53;100183.03;;;20.78;55.36
79006;BME280;69202;45.498;-73.582;2023-09-18T06:12:19;100333.66;;;21.71;55.53
79006;BME280;69202;45.498;-73.582;2023-09-18T06:14:46;100278.81;;;21.30;55.62
79006;BME280;69202;45.498;-73.582;2023-09-18T06:17:13;100233.47;;;21.13;55.37
79006;BME280;69202;45.498;-73.582;2023-09-18T06:19:41;100310.34;;;21.58;55.48
79006;BME280;69202;45.498;-73.582;2023-09-18T06:22:07;100327.66;;;21.59;55.38
79006;BME280;69202;45.498;-73.582;2023-09-18T06:24:38;100362.97;;;22.01;55.59
79006;BME280;69202;45.498;-73.582;2023-09-18T06:27:04;100427.75;;;22.43;55.62
79006;BME280;69202;45.498;-73.582;2023-09-18T06:29:33;100192.31;;;20.97;55.45
79006;BME280;69202;45.498;-73.582;2023-09-18T06:32:00;100447.56;;;22.45;55.78
79006;BME280;69202;45.498;-73.582;2023-09-18T06:34:26;100394.00;;;22.17;55.37
79006;BME280;69202;45.498;-73.582;2023-09-18T06:36:54;100365.78;;;21.86;55.32
79006;BME280;69202;45.498;-73.582;2023-09-18T06:39:19;100442.88;;;22.45;55.35
79006;BME280;69202;45.498;-73.582;2023-09-18T06:41:50;100262.03;;;21.37;55.45
79006;BME280;69202;45.498;-73.582;2023-09-18T06:44:16;100330.63;;;21.73;55.18
79006;BME280;69202;45.498;-73.582;2023-09-18T06:46:41;100427.97;;;22.46;55.14
79006;BME280;69202;45.498;-73.582;2023-09-18T06:49:08;100447.56;;;22.40;55.25
79006;BME280;69202;45.498;-73.582;2023-09-18T06:51:33;100365.41;;;22.08;55.30
79006;BME280;69202;45.498;-73.582;2023-09-18T06:53:59;100303.09;;;21.73;55.28
79006;BME280;69202;45.498;-73.582;2023-09-18T06:56:28;100356.88;;;22.04;55.35
79006;BME280;69202;45.498;-73.582;2023-09-18T06:58:54;100444.22;;;22.48;55.45
79006;BME280;69202;45.498;-73.582;2023-09-18T07:01:21;100432.38;;;22.47;55.36
79006;BME280;69202;45.498;-73.582;2023-09-18T07:03:47;100389.03;;;22.19;55.32
79006;BME280;69202;45.498;-73.582;2023-09-18T07:06:14;100424.69;;;22.44;55.53
79006;BME280;69202;45.498;-73.582;2023-09-18T07:08:46;100237.84;;;21.29;55.32
79006;BME280;69202;45.498;-73.582;2023-09-18T07:11:15;100319.56;;;21.78;55.46
79006;BME280;69202;45.498;-73.582;2023-09-18T07:13:41;100232.94;;;21.26;55.37
79006;BME280;69202;45.498;-73.582;2023-09-18T07:16:09;100238.16;;;21.17;55.55
79006;BME280;69202;45.498;-73.582;2023-09-18T07:18:35;100224.75;;;21.00;55.66
79006;BME280;69202;45.498;-73.582;2023-09-18T07:21:01;100269.66;;;21.45;55.52
79006;BME280;69202;45.498;-73.582;2023-09-18T07:23:27;100277.13;;;21.35;55.55
79006;BME280;69202;45.498;-73.582;2023-09-18T07:25:53;100316.34;;;21.66;55.64
79006;BME280;69202;45.498;-73.582;2023-09-18T07:28:19;100409.06;;;22.30;55.63
79006;BME280;69202;45.498;-73.582;2023-09-18T07:30:46;100425.00;;;22.38;55.60
79006;BME280;69202;45.498;-73.582;2023-09-18T07:33:13;100345.91;;;21.94;55.82
79006;BME280;69202;45.498;-73.582;2023-09-18T07:35:41;100214.50;;;21.16;55.63
79006;BME280;69202;45.498;-73.582;2023-09-18T07:38:07;100347.28;;;21.97;55.66
79006;BME280;69202;45.498;-73.582;2023-09-18T07:40:33;100258.13;;;21.43;55.83
79006;BME280;69202;45.498;-73.582;2023-09-18T07:42:59;100377.25;;;22.03;55.74
79006;BME280;69202;45.498;-73.582;2023-09-18T07:45:25;100303.16;;;21.63;55.67
79006;BME280;69202;45.498;-73.582;2023-09-18T07:47:51;100418.97;;;22.36;55.34
79006;BME280;69202;45.498;-73.582;2023-09-18T07:50:17;100420.91;;;22.35;55.52
79006;BME280;69202;45.498;-73.582;2023-09-18T07:52:43;100191.78;;;20.90;55.74
79006;BME280;69202;45.498;-73.582;2023-09-18T07:55:09;100352.78;;;21.97;55.84
79006;BME280;69202;45.498;-73.582;2023-09-18T07:57:35;100431.09;;;22.35;55.96
79006;BME280;69202;45.498;-73.582;2023-09-18T08:00:04;100331.91;;;21.90;55.85
79006;BME280;69202;45.498;-73.582;2023-09-18T08:02:33;100192.81;;;21.04;55.90
79006;BME280;69202;45.498;-73.582;2023-09-18T08:05:01;100404.72;;;22.18;56.01
79006;BME280;69202;45.498;-73.582;2023-09-18T08:07:27;100173.69;;;20.84;55.95
79006;BME280;69202;45.498;-73.582;2023-09-18T08:09:54;100235.69;;;21.26;56.05
79006;BME280;69202;45.498;-73.582;2023-09-18T08:12:20;100115.28;;;20.53;55.95
79006;BME280;69202;45.498;-73.582;2023-09-18T08:14:46;100232.41;;;21.03;56.16
79006;BME280;69202;45.498;-73.582;2023-09-18T08:17:12;100303.19;;;21.57;55.97
79006;BME280;69202;45.498;-73.582;2023-09-18T08:19:38;100016.00;;;20.00;55.77
79006;BME280;69202;45.498;-73.582;2023-09-18T08:22:05;100044.84;;;20.03;55.71
79006;BME280;69202;45.498;-73.582;2023-09-18T08:24:31;100152.25;;;20.81;56.24
79006;BME280;69202;45.498;-73.582;2023-09-18T08:26:57;100385.13;;;22.30;56.02
79006;BME280;69202;45.498;-73.582;2023-09-18T08:29:23;100091.13;;;20.40;55.98
79006;BME280;69202;45.498;-73.582;2023-09-18T08:31:49;100159.38;;;20.87;56.03
79006;BME280;69202;45.498;-73.582;2023-09-18T08:34:16;100215.13;;;20.93;56.42
79006;BME280;69202;45.498;-73.582;2023-09-18T08:36:42;100394.22;;;22.26;56.45
79006;BME280;69202;45.498;-73.582;2023-09-18T08:39:08;100185.75;;;20.88;56.47
79006;BME280;69202;45.498;-73.582;2023-09-18T08:41:38;100110.38;;;20.35;56.58
79006;BME280;69202;45.498;-73.582;2023-09-18T08:44:07;100398.97;;;22.15;56.74
79006;BME280;69202;45.498;-73.582;2023-09-18T08:46:38;100404.50;;;22.15;56.91
79006;BME280;69202;45.498;-73.582;2023-09-18T08:49:05;100427.88;;;22.23;56.76
79006;BME280;69202;45.498;-73.582;2023-09-18T08:51:33;100412.97;;;22.24;56.76
79006;BME280;69202;45.498;-73.582;2023-09-18T08:54:00;100409.13;;;22.25;56.70
79006;BME280;69202;45.498;-73.582;2023-09-18T08:56:27;100291.94;;;21.49;57.01
79006;BME280;69202;45.498;-73.582;2023-09-18T08:58:54;100345.25;;;21.63;57.16
79006;BME280;69202;45.498;-73.582;2023-09-18T09:01:22;100190.16;;;20.89;57.05
79006;BME280;69202;45.498;-73.582;2023-09-18T09:03:48;100395.16;;;22.11;57.04
79006;BME280;69202;45.498;-73.582;2023-09-18T09:06:14;100230.19;;;21.16;57.22
79006;BME280;69202;45.498;-73.582;2023-09-18T09:08:40;100343.25;;;21.79;57.58
79006;BME280;69202;45.498;-73.582;2023-09-18T09:11:06;100251.59;;;21.24;57.35
79006;BME280;69202;45.498;-73.582;2023-09-18T09:13:32;100286.22;;;21.40;57.48
79006;BME280;69202;45.498;-73.582;2023-09-18T09:15:59;100423.72;;;22.25;57.51
79006;BME280;69202;45.498;-73.582;2023-09-18T09:18:29;100172.91;;;20.68;57.15
79006;BME280;69202;45.498;-73.582;2023-09-18T09:23:25;100308.50;;;21.39;57.47
79006;BME280;69202;45.498;-73.582;2023-09-18T09:25:52;100100.56;;;20.03;57.43
79006;BME280;69202;45.498;-73.582;2023-09-18T09:28:29;100185.28;;;20.61;57.61
79006;BME280;69202;45.498;-73.582;2023-09-18T09:31:03;100385.09;;;21.81;57.44
79006;BME280;69202;45.498;-73.582;2023-09-18T09:33:29;100274.72;;;21.28;57.48
79006;BME280;69202;45.498;-73.582;2023-09-18T09:35:56;100359.50;;;21.80;57.66
79006;BME280;69202;45.498;-73.582;2023-09-18T09:38:33;100416.31;;;22.15;57.73
79006;BME280;69202;45.498;-73.582;2023-09-18T09:41:03;100430.63;;;22.17;57.57
79006;BME280;69202;45.498;-73.582;2023-09-18T09:43:32;100426.75;;;22.18;57.81
79006;BME280;69202;45.498;-73.582;2023-09-18T09:46:02;100355.09;;;21.79;57.91
79006;BME280;69202;45.498;-73.582;2023-09-18T09:48:29;100354.28;;;21.79;57.70
79006;BME280;69202;45.498;-73.582;2023-09-18T09:51:00;100341.34;;;21.74;57.81
79006;BME280;69202;45.498;-73.582;2023-09-18T09:53:43;100338.88;;;21.73;57.95
79006;BME280;69202;45.498;-73.582;2023-09-18T09:56:14;100204.72;;;20.90;57.90
79006;BME280;69202;45.498;-73.582;2023-09-18T09:58:40;100364.66;;;21.92;58.09
79006;BME280;69202;45.498;-73.582;2023-09-18T10:01:12;100369.59;;;21.95;58.00
79006;BME280;69202;45.498;-73.582;2023-09-18T10:03:44;100204.44;;;20.91;57.80
79006;BME280;69202;45.498;-73.582;2023-09-18T10:06:14;100232.09;;;21.15;58.00
79006;BME280;69202;45.498;-73.582;2023-09-18T10:08:40;100257.34;;;21.32;57.82
79006;BME280;69202;45.498;-73.582;2023-09-18T10:11:08;100398.69;;;22.16;57.87
79006;BME280;69202;45.498;-73.582;2023-09-18T10:13:47;100358.06;;;21.88;57.67
79006;BME280;69202;45.498;-73.582;2023-09-18T10:16:18;100364.66;;;21.92;58.11
79006;BME280;69202;45.498;-73.582;2023-09-18T10:18:59;100324.59;;;21.66;58.23
79006;BME280;69202;45.498;-73.582;2023-09-18T10:21:38;100396.84;;;21.97;58.45
79006;BME280;69202;45.498;-73.582;2023-09-18T10:24:14;100418.03;;;22.06;58.52
79006;BME280;69202;45.498;-73.582;2023-09-18T10:26:58;100256.59;;;21.12;58.20
79006;BME280;69202;45.498;-73.582;2023-09-18T10:29:25;100399.03;;;22.10;58.09
79006;BME280;69202;45.498;-73.582;2023-09-18T10:31:52;100397.66;;;22.02;58.34
79006;BME280;69202;45.498;-73.582;2023-09-18T10:34:20;100249.69;;;21.14;58.64
79006;BME280;69202;45.498;-73.582;2023-09-18T10:36:47;100285.97;;;21.31;58.27
79006;BME280;69202;45.498;-73.582;2023-09-18T10:39:14;100272.47;;;21.35;58.46
79006;BME280;69202;45.498;-73.582;2023-09-18T10:41:47;100345.16;;;21.83;58.46
79006;BME280;69202;45.498;-73.582;2023-09-18T10:44:15;100252.41;;;21.24;58.42
79006;BME280;69202;45.498;-73.582;2023-09-18T10:46:44;100176.72;;;20.78;58.31
79006;BME280;69202;45.498;-73.582;2023-09-18T10:49:10;100192.91;;;20.89;58.23
79006;BME280;69202;45.498;-73.582;2023-09-18T10:51:38;100391.00;;;22.13;58.28
79006;BME280;69202;45.498;-73.582;2023-09-18T10:54:14;100247.72;;;21.25;58.30
79006;BME280;69202;45.498;-73.582;2023-09-18T10:56:42;100142.13;;;20.77;58.11
79006;BME280;69202;45.498;-73.582;2023-09-18T10:59:08;100264.44;;;21.49;58.36
79006;BME280;69202;45.498;-73.582;2023-09-18T11:01:37;100221.91;;;21.21;58.16
79006;BME280;69202;45.498;-73.582;2023-09-18T11:04:05;100221.34;;;21.24;58.42
79006;BME280;69202;45.498;-73.582;2023-09-18T11:09:22;100387.31;;;22.28;58.19
79006;BME280;69202;45.498;-73.582;2023-09-18T11:22:57;100366.47;;;21.57;58.31
79006;BME280;69202;45.498;-73.582;2023-09-18T11:25:37;100283.75;;;21.33;57.98
79006;BME280;69202;45.498;-73.582;2023-09-18T11:28:05;100383.06;;;22.02;57.92
79006;BME280;69202;45.498;-73.582;2023-09-18T11:30:35;100399.03;;;22.10;57.91
79006;BME280;69202;45.498;-73.582;2023-09-18T11:33:03;100410.75;;;22.26;57.79
79006;BME280;69202;45.498;-73.582;2023-09-18T11:35:30;100342.28;;;22.04;57.29
79006;BME280;69202;45.498;-73.582;2023-09-18T11:38:04;100143.47;;;20.84;56.73
79006;BME280;69202;45.498;-73.582;2023-09-18T11:40:37;100200.19;;;21.19;56.57
79006;BME280;69202;45.498;-73.582;2023-09-18T11:43:24;100404.75;;;22.63;57.02
79006;BME280;69202;45.498;-73.582;2023-09-18T11:45:53;100387.84;;;22.69;56.82
79006;BME280;69202;45.498;-73.582;2023-09-18T11:48:20;100269.34;;;22.01;56.65
79006;BME280;69202;45.498;-73.582;2023-09-18T11:50:47;100374.13;;;22.64;56.90
79006;BME280;69202;45.498;-73.582;2023-09-18T11:53:17;100241.50;;;21.64;56.89
79006;BME280;69202;45.498;-73.582;2023-09-18T11:55:47;100392.53;;;22.74;56.76
79006;BME280;69202;45.498;-73.582;2023-09-18T11:58:13;100402.16;;;22.71;55.33
79006;BME280;69202;45.498;-73.582;2023-09-18T12:00:40;100166.75;;;20.97;53.13
79006;BME280;69202;45.498;-73.582;2023-09-18T12:03:23;100400.50;;;22.36;51.17
79006;BME280;69202;45.498;-73.582;2023-09-18T12:05:58;100268.34;;;21.38;49.94
79006;BME280;69202;45.498;-73.582;2023-09-18T12:08:25;100311.81;;;21.30;49.12
79006;BME280;69202;45.498;-73.582;2023-09-18T12:10:56;100267.09;;;20.89;48.71
79006;BME280;69202;45.498;-73.582;2023-09-18T12:13:27;100409.38;;;21.64;49.38
79006;BME280;69202;45.498;-73.582;2023-09-18T12:16:03;100340.47;;;20.99;52.84
79006;BME280;69202;45.498;-73.582;2023-09-18T12:18:35;100426.44;;;21.60;55.95
79006;BME280;69202;45.498;-73.582;2023-09-18T12:21:06;100274.84;;;20.67;58.05
79006;BME280;69202;45.498;-73.582;2023-09-18T12:23:39;100147.75;;;19.95;59.32
79006;BME280;69202;45.498;-73.582;2023-09-18T12:26:06;100277.03;;;20.75;60.29
79006;BME280;69202;45.498;-73.582;2023-09-18T12:28:36;100283.63;;;20.79;61.20
79006;BME280;69202;45.498;-73.582;2023-09-18T12:31:03;100078.63;;;19.52;62.23
79006;BME280;69202;45.498;-73.582;2023-09-18T12:33:35;100321.00;;;20.85;62.84
79006;BME280;69202;45.498;-73.582;2023-09-18T12:36:03;100399.28;;;21.39;63.33
79006;BME280;69202;45.498;-73.582;2023-09-18T12:38:30;100270.97;;;20.78;62.98
79006;BME280;69202;45.498;-73.582;2023-09-18T12:40:57;100428.03;;;21.82;63.01
79006;BME280;69202;45.498;-73.582;2023-09-18T12:43:35;100084.94;;;19.73;62.35
79006;BME280;69202;45.498;-73.582;2023-09-18T12:46:05;100293.72;;;21.04;61.93
79006;BME280;69202;45.498;-73.582;2023-09-18T12:48:31;100306.31;;;21.15;61.55
79006;BME280;69202;45.498;-73.582;2023-09-18T12:51:06;100289.00;;;21.15;61.08
79006;BME280;69202;45.498;-73.582;2023-09-18T12:53:33;100422.69;;;22.11;60.94